Beloit, Kansas
Current Conditions -  °F | °C
As of 3:55 PM on Tuesday 21 Oct 2014 (Local Time) from KCNK Reporting Station
Clear Clear  
Wind Chill: 76°   Ceiling: Unl
Heat Index: 76°   Visibility: 10mi
Dew Point: 53°   Wind: 13mph
Humidity: 45%   Direction: 140°SE
Pressure: 30.01"   Gusts: NA
Location:  39.46°N, 98.11°W
Report Text: KCNK 212055Z AUTO 14011KT 10SM CLR 24/12 A3001 RMK AO2 SLP155 T02440117 56025
Loading
Personal Weather Stations






























Interactive Weather Map New forecast layout! Learn more

10-Day Weather Forecast

Advertisements
Track Severe Weather on mobile